Time;durP1;ratioP1;P1;durP2;ratioP2;P2;SDS_P1;SDS_P2;PMS_P1;PMS_P2;Temp;Humidity;BMP_temperature;BMP_pressure;BME280_temperature;BME280_humidity;BME280_pressure;Samples;Min_cycle;Max_cycle;Signal;HPM_P1;HPM_P2
2021/12/22 00:00:11;;;;;;;24.17;11.82;;;;;;;-3.69;54.64;102660.47;4979805;28;20501;-61
2021/12/22 00:02:39;;;;;;;25.25;13.23;;;;;;;-3.72;54.89;102657.75;4958923;28;20039;-62
2021/12/22 00:05:05;;;;;;;25.05;13.05;;;;;;;-3.82;54.90;102666.66;4962342;28;20563;-62
2021/12/22 00:07:30;;;;;;;27.80;13.00;;;;;;;-3.79;54.81;102661.69;4959336;28;20051;-61
2021/12/22 00:09:56;;;;;;;23.48;13.93;;;;;;;-3.73;54.64;102663.66;4977098;28;20042;-61
2021/12/22 00:12:21;;;;;;;21.23;12.05;;;;;;;-3.67;54.43;102663.97;4963326;28;20042;-62
2021/12/22 00:14:46;;;;;;;27.92;12.52;;;;;;;-3.74;54.56;102659.34;4959645;28;20059;-64
2021/12/22 00:17:12;;;;;;;35.90;12.32;;;;;;;-3.93;55.06;102661.03;4960150;28;20038;-61
2021/12/22 00:19:37;;;;;;;22.98;13.40;;;;;;;-3.76;54.72;102656.72;4954268;28;20035;-62
2021/12/22 00:22:03;;;;;;;22.15;11.77;;;;;;;-4.00;55.22;102647.88;4961039;28;20047;-62
2021/12/22 00:24:29;;;;;;;21.55;11.85;;;;;;;-3.81;55.04;102654.75;4951791;28;20031;-62
2021/12/22 00:26:54;;;;;;;22.52;12.45;;;;;;;-3.80;54.67;102654.81;4962087;28;20080;-62
2021/12/22 00:29:20;;;;;;;27.90;13.02;;;;;;;-3.88;54.82;102654.44;4959984;28;20038;-61
2021/12/22 00:31:58;;;;;;;24.80;12.40;;;;;;;-3.94;55.00;102659.28;4960854;28;20461;-62
2021/12/22 00:34:26;;;;;;;21.48;11.95;;;;;;;-3.86;54.92;102661.31;4960997;28;20031;-61
2021/12/22 00:36:51;;;;;;;23.52;12.93;;;;;;;-4.10;55.65;102656.75;4958917;28;20033;-61
2021/12/22 00:39:17;;;;;;;19.08;11.73;;;;;;;-4.01;55.43;102653.78;4960449;28;20130;-61
2021/12/22 00:41:42;;;;;;;23.92;11.98;;;;;;;-3.92;55.13;102657.69;4958041;28;20023;-62
2021/12/22 00:44:09;;;;;;;19.35;10.95;;;;;;;-3.96;54.90;102658.31;4959298;28;20038;-61
2021/12/22 00:46:35;;;;;;;25.05;11.75;;;;;;;-3.79;54.44;102668.47;4968185;28;20053;-62
2021/12/22 00:49:00;;;;;;;18.95;11.68;;;;;;;-3.74;54.23;102667.91;4990311;28;20460;-62
2021/12/22 00:51:26;;;;;;;28.65;12.80;;;;;;;-3.70;53.81;102667.25;4960236;28;20042;-62
2021/12/22 00:53:51;;;;;;;22.40;11.43;;;;;;;-3.73;53.94;102661.97;4959435;28;20094;-61
2021/12/22 00:56:17;;;;;;;20.60;10.70;;;;;;;-3.80;54.45;102669.28;4961637;28;20046;-61
2021/12/22 00:58:42;;;;;;;24.02;12.45;;;;;;;-3.95;55.01;102667.72;4957999;28;20043;-61
2021/12/22 01:01:08;;;;;;;30.50;13.90;;;;;;;-4.09;55.02;102669.59;4960794;28;20125;-62
2021/12/22 01:03:35;;;;;;;30.45;12.57;;;;;;;-3.93;54.66;102675.47;4960034;28;20038;-62
2021/12/22 01:06:01;;;;;;;26.55;12.30;;;;;;;-3.92;54.56;102667.91;4960337;28;20102;-64
2021/12/22 01:08:27;;;;;;;21.38;11.25;;;;;;;-4.28;55.29;102671.16;4957464;28;20061;-62
2021/12/22 01:10:52;;;;;;;16.83;10.80;;;;;;;-4.07;55.09;102667.13;4960820;28;20043;-63
2021/12/22 01:13:18;;;;;;;24.77;11.73;;;;;;;-4.18;55.36;102673.41;4959337;28;20054;-63
2021/12/22 01:15:44;;;;;;;26.15;12.30;;;;;;;-4.27;55.33;102673.81;4957898;28;20057;-63
2021/12/22 01:18:14;;;;;;;22.73;11.15;;;;;;;-4.21;55.00;102665.56;4959929;28;20512;-63
2021/12/22 01:23:26;;;;;;;22.65;12.20;;;;;;;-4.18;55.01;102668.28;4959143;28;20303;-61
2021/12/22 01:25:52;;;;;;;26.02;11.90;;;;;;;-4.62;55.88;102669.47;4956371;28;20061;-62
2021/12/22 01:28:21;;;;;;;18.75;10.68;;;;;;;-4.44;56.07;102665.28;4960447;28;20440;-63
2021/12/22 01:30:48;;;;;;;16.42;9.77;;;;;;;-4.26;55.32;102669.56;4960075;28;20038;-63
2021/12/22 01:33:15;;;;;;;19.80;9.63;;;;;;;-4.28;55.48;102663.50;4959303;28;20053;-62
2021/12/22 01:35:43;;;;;;;22.55;11.50;;;;;;;-4.32;55.32;102665.91;4959230;28;20043;-63
2021/12/22 01:38:08;;;;;;;23.00;11.32;;;;;;;-4.36;55.41;102665.69;4958402;28;20398;-62
2021/12/22 01:40:38;;;;;;;25.98;11.45;;;;;;;-4.23;55.31;102662.97;4958527;28;20085;-62
2021/12/22 01:43:05;;;;;;;16.15;10.13;;;;;;;-4.17;54.94;102654.69;4959139;28;20067;-63
2021/12/22 01:51:54;;;;;;;26.60;10.68;;;;;;;-4.29;55.06;102665.19;4956973;28;20038;-62
2021/12/22 01:54:19;;;;;;;18.52;11.18;;;;;;;-4.47;55.77;102664.28;4960176;28;20118;-62
2021/12/22 01:56:49;;;;;;;16.15;10.38;;;;;;;-4.33;55.52;102658.19;4957215;28;20490;-63
2021/12/22 01:59:15;;;;;;;19.23;10.50;;;;;;;-4.20;55.21;102659.69;4958854;28;20513;-63
2021/12/22 02:01:41;;;;;;;21.60;11.95;;;;;;;-4.46;55.56;102659.22;4957250;28;20038;-62
2021/12/22 02:04:10;;;;;;;19.83;10.48;;;;;;;-4.42;55.73;102656.03;4960849;28;20022;-61
2021/12/22 02:06:47;;;;;;;20.23;10.70;;;;;;;-4.38;55.49;102659.63;4958036;28;20038;-62
2021/12/22 02:09:21;;;;;;;22.95;10.52;;;;;;;-4.25;55.03;102662.00;4957521;28;20077;-62
2021/12/22 02:11:47;;;;;;;20.95;9.75;;;;;;;-4.34;55.18;102657.31;4957569;28;20256;-61
2021/12/22 02:14:13;;;;;;;21.63;10.23;;;;;;;-4.37;55.39;102659.69;4959321;28;20486;-62
2021/12/22 02:16:39;;;;;;;20.73;10.43;;;;;;;-4.49;55.55;102653.09;4959654;28;20511;-62
2021/12/22 02:19:07;;;;;;;17.88;10.05;;;;;;;-4.49;55.80;102653.97;4958200;28;20476;-61
2021/12/22 02:21:39;;;;;;;19.02;10.15;;;;;;;-4.37;55.10;102652.03;4956470;28;20068;-61
2021/12/22 02:24:04;;;;;;;17.73;10.45;;;;;;;-4.33;54.94;102653.94;4958596;28;20070;-63
2021/12/22 02:29:16;;;;;;;22.52;10.85;;;;;;;-4.19;54.79;102654.63;4973081;28;20130;-63
2021/12/22 02:31:46;;;;;;;20.00;10.02;;;;;;;-4.33;55.11;102653.06;4973478;28;20038;-65
2021/12/22 02:34:15;;;;;;;20.10;10.07;;;;;;;-4.16;54.38;102656.47;4959650;28;20438;-63
2021/12/22 02:36:43;;;;;;;22.95;10.75;;;;;;;-4.17;54.57;102654.69;4953508;28;20051;-63
2021/12/22 02:39:09;;;;;;;21.15;10.18;;;;;;;-4.03;54.17;102657.94;4959469;28;20075;-63
2021/12/22 02:41:39;;;;;;;19.88;9.05;;;;;;;-4.19;54.49;102661.41;4990179;28;20580;-64
2021/12/22 02:44:08;;;;;;;23.35;9.85;;;;;;;-4.19;54.16;102657.16;4958864;28;20050;-63
2021/12/22 02:46:35;;;;;;;17.67;9.73;;;;;;;-4.14;54.10;102659.97;4966344;28;20175;-63
2021/12/22 02:49:03;;;;;;;20.40;10.50;;;;;;;-4.13;54.24;102654.06;4956657;28;20075;-64
2021/12/22 02:51:29;;;;;;;24.13;9.80;;;;;;;-4.34;54.78;102657.31;4972140;28;20039;-64
2021/12/22 03:01:51;;;;;;;17.23;9.18;;;;;;;-4.30;54.61;102638.78;4957074;28;20039;-63
2021/12/22 03:04:13;;;;;;;;;;;;;;;-4.60;54.93;102638.13;4959976;28;20047;-64
2021/12/22 03:06:54;;;;;;;19.00;9.25;;;;;;;-4.30;54.43;102636.25;4957507;28;20367;-63
2021/12/22 03:09:29;;;;;;;15.98;9.15;;;;;;;-4.76;55.51;102646.66;4960394;28;20070;-63
2021/12/22 03:11:57;;;;;;;22.65;10.23;;;;;;;-4.57;55.01;102643.41;4954907;28;20385;-63
2021/12/22 03:14:24;;;;;;;22.75;10.77;;;;;;;-4.41;54.64;102649.25;4961719;28;20117;-63
2021/12/22 03:16:50;;;;;;;18.08;9.48;;;;;;;-4.38;54.66;102642.63;4955942;28;20034;-63
2021/12/22 03:19:19;;;;;;;23.35;10.77;;;;;;;-4.30;54.43;102648.09;4959247;28;20039;-62
2021/12/22 03:21:47;;;;;;;24.50;11.32;;;;;;;-4.43;54.50;102648.28;4958120;28;20050;-63
2021/12/22 03:24:14;;;;;;;21.10;9.73;;;;;;;-4.50;54.82;102654.75;4959168;28;20031;-64
2021/12/22 03:26:44;;;;;;;20.30;10.35;;;;;;;-4.33;54.23;102653.94;4956145;28;20060;-62
2021/12/22 03:29:13;;;;;;;22.00;9.73;;;;;;;-4.35;54.07;102657.22;4959911;28;20505;-62
2021/12/22 03:31:40;;;;;;;16.55;9.55;;;;;;;-4.47;53.94;102649.81;4955609;28;20412;-63
2021/12/22 03:34:06;;;;;;;17.98;9.57;;;;;;;-4.86;55.15;102641.84;4962432;28;20286;-64
2021/12/22 03:36:33;;;;;;;15.95;9.40;;;;;;;-4.77;55.27;102644.91;4959927;28;20041;-62
2021/12/22 03:38:59;;;;;;;22.25;9.80;;;;;;;-4.69;55.02;102642.75;4961333;28;20073;-61
2021/12/22 03:41:24;;;;;;;18.10;9.20;;;;;;;-4.84;55.35;102640.28;4964036;28;20182;-62
2021/12/22 03:43:50;;;;;;;26.27;11.20;;;;;;;-5.16;55.97;102639.47;4950998;28;20046;-63
2021/12/22 03:46:15;;;;;;;19.05;10.45;;;;;;;-4.90;55.88;102636.53;4961939;28;20517;-62
2021/12/22 03:48:42;;;;;;;18.45;11.50;;;;;;;-5.01;55.90;102628.34;4960550;28;20109;-63
2021/12/22 03:51:08;;;;;;;18.55;9.57;;;;;;;-4.76;55.06;102631.34;4961618;28;20042;-61
2021/12/22 03:53:34;;;;;;;22.20;10.50;;;;;;;-5.01;55.65;102630.88;4960127;28;20066;-61
2021/12/22 03:56:00;;;;;;;22.40;10.45;;;;;;;-5.16;56.31;102636.03;4959054;28;20055;-61
2021/12/22 03:58:25;;;;;;;15.05;8.48;;;;;;;-4.75;55.17;102627.97;4959277;28;20082;-61
2021/12/22 04:00:54;;;;;;;24.40;10.80;;;;;;;-5.45;56.25;102634.47;4956599;28;20069;-61
2021/12/22 04:03:22;;;;;;;18.92;10.52;;;;;;;-5.54;56.74;102624.66;4959037;28;20527;-62
2021/12/22 04:05:48;;;;;;;19.15;10.32;;;;;;;-5.21;55.98;102630.69;4959676;28;20062;-61
2021/12/22 04:08:17;;;;;;;17.98;10.02;;;;;;;-5.18;55.60;102619.78;4964873;28;20070;-62
2021/12/22 04:10:42;;;;;;;16.88;9.40;;;;;;;-4.95;54.76;102623.53;4969436;28;20690;-62
2021/12/22 04:13:09;;;;;;;23.08;9.98;;;;;;;-4.91;54.64;102628.00;4961754;28;20046;-63
2021/12/22 04:15:35;;;;;;;20.02;9.23;;;;;;;-4.96;54.42;102624.34;4961688;28;20027;-62
2021/12/22 04:18:01;;;;;;;20.67;9.70;;;;;;;-4.98;54.75;102621.69;4960636;28;20207;-63
2021/12/22 04:20:28;;;;;;;20.15;9.88;;;;;;;-5.04;55.00;102623.06;4960206;28;20731;-62
2021/12/22 04:22:54;;;;;;;16.23;9.00;;;;;;;-5.20;54.94;102616.28;4978114;28;20067;-62
2021/12/22 04:25:21;;;;;;;24.20;10.38;;;;;;;-5.21;55.48;102615.41;4960734;28;20457;-62
2021/12/22 04:27:55;;;;;;;22.45;9.50;;;;;;;-5.13;55.43;102619.22;4974308;28;20055;-62
2021/12/22 04:30:23;;;;;;;19.50;8.98;;;;;;;-4.89;54.93;102616.22;4960576;28;20086;-61
2021/12/22 04:32:49;;;;;;;17.58;8.93;;;;;;;-4.97;54.83;102610.72;4959590;28;20186;-64
2021/12/22 04:35:15;;;;;;;20.23;9.65;;;;;;;-5.11;54.91;102611.66;4960898;28;20438;-62
2021/12/22 04:37:41;;;;;;;20.98;9.60;;;;;;;-4.79;54.69;102617.53;4973284;28;20566;-62
2021/12/22 04:40:07;;;;;;;19.10;9.82;;;;;;;-5.09;55.07;102614.28;4963751;28;20132;-62
2021/12/22 04:42:33;;;;;;;18.67;9.10;;;;;;;-4.93;55.29;102614.28;4959885;28;20061;-62
2021/12/22 04:45:00;;;;;;;19.13;9.15;;;;;;;-4.99;55.22;102613.97;4961788;28;20505;-67
2021/12/22 04:47:26;;;;;;;15.57;8.07;;;;;;;-4.62;54.14;102603.97;4968734;28;20055;-64
2021/12/22 04:49:51;;;;;;;15.20;8.95;;;;;;;-5.50;55.60;102612.97;4992697;28;20061;-62
2021/12/22 04:52:20;;;;;;;17.45;9.10;;;;;;;-5.15;55.10;102608.09;4960668;28;20525;-62
2021/12/22 04:55:02;;;;;;;14.27;8.30;;;;;;;-4.80;54.24;102610.72;4953155;28;20062;-63
2021/12/22 04:57:28;;;;;;;20.08;8.32;;;;;;;-4.72;53.96;102612.00;4959364;28;20541;-62
2021/12/22 04:59:56;;;;;;;20.58;8.13;;;;;;;-4.73;53.71;102616.19;4962491;28;20330;-63
2021/12/22 05:02:22;;;;;;;19.02;8.15;;;;;;;-4.83;53.15;102613.97;4961296;28;20050;-62
2021/12/22 05:04:47;;;;;;;15.10;8.10;;;;;;;-4.94;53.62;102610.00;4957297;28;20046;-63
2021/12/22 05:07:13;;;;;;;21.08;9.18;;;;;;;-4.65;52.74;102605.53;4960182;28;20042;-61
2021/12/22 05:09:38;;;;;;;17.02;7.88;;;;;;;-4.78;53.10;102604.88;4960152;28;20038;-62
2021/12/22 05:12:04;;;;;;;15.68;9.77;;;;;;;-5.14;53.78;102601.31;4960335;28;20047;-63
2021/12/22 05:14:31;;;;;;;13.35;7.55;;;;;;;-5.09;53.69;102593.91;4959200;28;20035;-63
2021/12/22 05:17:01;;;;;;;16.70;7.40;;;;;;;-5.05;53.65;102596.69;4961242;28;20078;-63
2021/12/22 05:19:26;;;;;;;22.10;9.07;;;;;;;-5.57;54.80;102589.72;4962478;28;20027;-64
2021/12/22 05:21:53;;;;;;;13.40;8.73;;;;;;;-5.41;54.31;102580.34;4959315;28;20023;-63
2021/12/22 05:24:18;;;;;;;14.60;8.85;;;;;;;-5.16;53.54;102573.16;4957706;28;20038;-63
2021/12/22 05:26:44;;;;;;;20.13;9.02;;;;;;;-5.15;53.68;102564.75;4959805;28;20093;-63
2021/12/22 05:29:11;;;;;;;21.67;9.45;;;;;;;-5.07;53.21;102554.06;4962826;28;20023;-62
2021/12/22 05:31:38;;;;;;;12.77;6.80;;;;;;;-5.15;53.18;102552.00;4959215;28;20035;-61
2021/12/22 05:34:03;;;;;;;19.60;7.82;;;;;;;-5.08;53.33;102544.63;4955991;28;20651;-61
2021/12/22 05:36:29;;;;;;;15.57;6.78;;;;;;;-5.32;53.78;102545.13;4958915;28;20037;-62
2021/12/22 05:38:55;;;;;;;9.52;6.90;;;;;;;-5.44;53.82;102542.81;4959125;28;20417;-61
2021/12/22 05:41:20;;;;;;;20.05;9.05;;;;;;;-5.29;53.80;102558.03;4962011;28;20243;-61
2021/12/22 05:43:46;;;;;;;13.85;7.35;;;;;;;-5.10;53.53;102558.97;4958533;28;20452;-62
2021/12/22 05:46:12;;;;;;;15.13;7.55;;;;;;;-4.99;53.10;102561.31;4951109;28;20497;-62
2021/12/22 05:48:37;;;;;;;11.75;6.45;;;;;;;-4.88;52.88;102561.88;4989450;28;20058;-62
2021/12/22 05:51:03;;;;;;;14.63;8.25;;;;;;;-4.86;52.57;102564.47;4959925;28;20043;-64
2021/12/22 05:53:29;;;;;;;10.10;7.50;;;;;;;-4.96;52.97;102558.03;4959517;28;20901;-61
2021/12/22 05:55:56;;;;;;;12.43;7.30;;;;;;;-4.89;52.97;102551.56;4960105;28;20034;-62
2021/12/22 05:58:23;;;;;;;17.63;7.75;;;;;;;-5.24;53.12;102554.03;4957621;28;20047;-61
2021/12/22 06:00:49;;;;;;;14.18;8.43;;;;;;;-4.75;52.71;102550.59;4959212;28;20042;-61
2021/12/22 06:03:15;;;;;;;11.48;7.90;;;;;;;-5.00;52.18;102557.00;4959968;28;20043;-62
2021/12/22 06:05:41;;;;;;;9.52;6.32;;;;;;;-4.88;52.34;102551.66;4958688;28;20041;-63
2021/12/22 06:08:07;;;;;;;14.70;7.57;;;;;;;-5.22;53.19;102555.00;4958804;28;20047;-62
2021/12/22 06:10:36;;;;;;;11.73;6.88;;;;;;;-5.23;53.46;102550.72;4959696;28;20150;-61
2021/12/22 06:13:08;;;;;;;15.90;7.82;;;;;;;-4.92;52.71;102548.06;4973795;28;20046;-61
2021/12/22 06:15:35;;;;;;;12.68;6.70;;;;;;;-4.85;52.34;102551.81;4957065;28;20452;-61
2021/12/22 06:18:02;;;;;;;11.05;5.95;;;;;;;-4.79;52.25;102549.56;4960165;28;20505;-61
2021/12/22 06:20:29;;;;;;;13.00;7.20;;;;;;;-4.76;52.22;102539.50;4962797;28;20053;-62
2021/12/22 06:22:55;;;;;;;12.77;6.38;;;;;;;-4.58;51.75;102538.69;4952352;28;20042;-62
2021/12/22 06:25:21;;;;;;;13.93;7.38;;;;;;;-4.47;51.65;102531.56;4961439;28;20022;-62
2021/12/22 06:27:47;;;;;;;10.82;6.40;;;;;;;-5.05;52.27;102525.28;4956796;28;20398;-62
2021/12/22 06:30:13;;;;;;;11.38;6.47;;;;;;;-5.52;53.89;102526.25;4960788;28;20112;-63
2021/12/22 06:32:39;;;;;;;14.57;6.75;;;;;;;-5.01;52.71;102526.34;4958825;28;20108;-63
2021/12/22 06:35:05;;;;;;;11.05;6.10;;;;;;;-4.77;52.08;102527.56;4958981;28;20051;-63
2021/12/22 06:37:31;;;;;;;12.00;6.68;;;;;;;-4.84;52.68;102524.63;4972932;28;20494;-61
2021/12/22 06:39:56;;;;;;;15.50;7.10;;;;;;;-5.21;53.51;102523.63;4958809;28;20041;-63
2021/12/22 06:42:23;;;;;;;14.93;7.28;;;;;;;-4.90;52.90;102534.50;4958529;28;20042;-63
2021/12/22 06:44:49;;;;;;;11.90;6.18;;;;;;;-4.78;52.45;102528.34;4958995;28;20271;-62
2021/12/22 06:47:15;;;;;;;14.32;6.00;;;;;;;-4.85;52.80;102536.50;4957708;28;20047;-65
2021/12/22 06:49:40;;;;;;;10.82;6.15;;;;;;;-4.78;52.53;102535.13;4959086;28;20122;-62
2021/12/22 06:52:06;;;;;;;13.55;6.55;;;;;;;-4.58;51.71;102537.00;4958481;28;20077;-63
2021/12/22 06:54:31;;;;;;;12.15;6.25;;;;;;;-4.55;51.70;102537.13;4959275;28;20038;-60
2021/12/22 06:56:57;;;;;;;15.35;7.15;;;;;;;-4.47;51.45;102537.53;4956369;28;20039;-65
2021/12/22 06:59:23;;;;;;;12.68;6.72;;;;;;;-4.40;51.41;102544.69;4959332;28;20426;-62
2021/12/22 07:01:50;;;;;;;17.10;6.60;;;;;;;-4.32;51.30;102556.16;4953484;28;20518;-62
2021/12/22 07:04:16;;;;;;;8.38;6.35;;;;;;;-4.20;50.97;102563.50;4958296;28;20118;-62
2021/12/22 07:06:41;;;;;;;10.52;5.85;;;;;;;-4.15;50.85;102558.63;4959610;28;20038;-62
2021/12/22 07:09:07;;;;;;;12.95;6.35;;;;;;;-4.37;51.15;102560.13;4963839;28;20065;-64
2021/12/22 07:11:35;;;;;;;14.73;6.25;;;;;;;-4.32;50.84;102565.50;4961290;28;20046;-62
2021/12/22 07:14:01;;;;;;;15.40;6.25;;;;;;;-4.43;51.12;102556.41;4965334;28;20492;-61
2021/12/22 07:16:27;;;;;;;11.00;5.97;;;;;;;-4.29;50.86;102563.06;4966945;28;20035;-62
2021/12/22 07:18:53;;;;;;;13.95;6.20;;;;;;;-4.17;50.66;102566.19;4970941;28;20039;-63
2021/12/22 07:21:19;;;;;;;9.13;6.65;;;;;;;-4.46;50.77;102575.00;4968212;28;20063;-61
2021/12/22 07:23:45;;;;;;;9.45;6.22;;;;;;;-4.24;50.94;102578.59;4991047;28;20777;-61
2021/12/22 07:26:13;;;;;;;11.95;6.40;;;;;;;-4.14;50.52;102565.50;4962400;28;20039;-62
2021/12/22 07:28:49;;;;;;;12.38;7.00;;;;;;;-4.58;51.23;102561.63;4957612;28;20558;-61
2021/12/22 07:31:16;;;;;;;11.43;5.75;;;;;;;-4.54;51.07;102564.41;4963480;28;20040;-62
2021/12/22 07:33:56;;;;;;;10.10;6.60;;;;;;;-4.19;50.79;102564.38;4959423;28;20049;-62
2021/12/22 07:36:22;;;;;;;9.23;5.22;;;;;;;-4.66;51.41;102570.59;4960753;28;20497;-62
2021/12/22 07:38:58;;;;;;;13.00;6.68;;;;;;;-4.32;50.83;102570.59;4975688;28;20071;-62
2021/12/22 07:41:24;;;;;;;16.75;7.18;;;;;;;-4.22;50.54;102580.44;4971058;28;20031;-63
2021/12/22 07:43:50;;;;;;;9.80;5.63;;;;;;;-4.33;50.49;102582.47;4960740;28;20047;-63
2021/12/22 07:46:16;;;;;;;14.30;6.35;;;;;;;-4.30;50.21;102574.97;4964002;28;20599;-63
2021/12/22 07:48:42;;;;;;;9.43;5.57;;;;;;;-4.34;50.10;102569.63;4961136;28;20177;-63
2021/12/22 07:51:07;;;;;;;10.88;5.80;;;;;;;-4.29;50.07;102570.72;4963327;28;20555;-62
2021/12/22 07:53:33;;;;;;;11.68;5.75;;;;;;;-4.28;50.12;102579.25;4990875;28;20043;-63
2021/12/22 07:55:59;;;;;;;11.68;7.28;;;;;;;-4.17;49.96;102576.41;4960178;28;20027;-62
2021/12/22 07:58:26;;;;;;;14.77;7.07;;;;;;;-4.48;50.24;102566.38;4962473;28;20042;-62
2021/12/22 08:00:53;;;;;;;13.13;6.43;;;;;;;-4.23;49.71;102570.13;4961421;28;20042;-62
2021/12/22 08:03:19;;;;;;;10.63;6.47;;;;;;;-4.11;49.79;102569.06;4961363;28;20141;-64
2021/12/22 08:05:45;;;;;;;10.43;6.50;;;;;;;-4.04;49.55;102569.34;4959613;28;20084;-64
2021/12/22 08:08:11;;;;;;;12.45;6.05;;;;;;;-4.36;50.08;102561.91;4971009;28;20067;-63
2021/12/22 08:10:36;;;;;;;10.77;6.40;;;;;;;-4.25;50.19;102559.00;4958924;28;20069;-63
2021/12/22 08:13:02;;;;;;;16.73;6.85;;;;;;;-4.48;50.08;102558.72;4961197;28;20579;-63
2021/12/22 08:15:28;;;;;;;14.63;6.72;;;;;;;-4.69;51.13;102562.78;4958728;28;20043;-63
2021/12/22 08:17:54;;;;;;;10.55;6.57;;;;;;;-4.63;50.93;102571.63;4959202;28;20109;-64
2021/12/22 08:20:21;;;;;;;10.40;7.05;;;;;;;-4.56;50.77;102567.69;4991702;28;20058;-62
2021/12/22 08:22:48;;;;;;;11.07;6.93;;;;;;;-4.59;50.79;102558.22;4959792;28;20063;-62
2021/12/22 08:25:14;;;;;;;11.50;6.20;;;;;;;-4.60;50.50;102560.69;4959413;28;20051;-64
2021/12/22 08:27:39;;;;;;;14.52;7.07;;;;;;;-4.42;49.60;102564.13;4959840;28;20454;-63
2021/12/22 08:30:06;;;;;;;12.73;6.97;;;;;;;-4.95;50.44;102567.41;4962217;28;20133;-63
2021/12/22 08:32:33;;;;;;;9.50;6.05;;;;;;;-4.45;50.24;102571.66;4955047;28;20062;-64
2021/12/22 08:34:59;;;;;;;11.20;7.45;;;;;;;-5.06;51.02;102578.75;4962319;28;20061;-63
2021/12/22 08:40:11;;;;;;;12.35;7.65;;;;;;;-4.48;50.59;102589.34;4960586;28;20146;-63
2021/12/22 08:42:37;;;;;;;24.95;12.00;;;;;;;-4.14;50.09;102588.47;4961551;28;20054;-64
2021/12/22 08:45:04;;;;;;;16.33;7.75;;;;;;;-4.07;49.19;102595.63;4960746;28;20026;-63
2021/12/22 08:47:30;;;;;;;12.90;7.13;;;;;;;-4.19;49.03;102589.91;4956414;28;20406;-63
2021/12/22 08:49:55;;;;;;;10.57;7.00;;;;;;;-3.86;49.29;102592.34;4959781;28;20041;-64
2021/12/22 08:52:21;;;;;;;13.57;6.78;;;;;;;-3.94;48.58;102587.75;4956511;28;20039;-62
2021/12/22 08:54:47;;;;;;;17.35;8.60;;;;;;;-4.11;49.13;102588.63;4958257;28;20106;-63
2021/12/22 08:57:12;;;;;;;13.05;7.80;;;;;;;-3.82;48.10;102591.69;4957727;28;20042;-64
2021/12/22 08:59:38;;;;;;;15.23;7.70;;;;;;;-3.83;47.84;102583.16;4957216;28;20070;-63
2021/12/22 09:02:04;;;;;;;10.85;6.45;;;;;;;-3.76;48.23;102581.75;4960266;28;20043;-63
2021/12/22 09:04:30;;;;;;;11.43;6.20;;;;;;;-3.85;47.70;102582.19;4956956;28;20085;-62
2021/12/22 09:06:56;;;;;;;11.63;7.03;;;;;;;-3.88;47.97;102587.16;4956149;28;20788;-64
2021/12/22 09:09:22;;;;;;;12.52;6.72;;;;;;;-4.12;48.16;102584.28;4957449;28;20038;-63
2021/12/22 09:11:49;;;;;;;14.73;7.57;;;;;;;-4.13;48.06;102575.75;4957651;28;20053;-62
2021/12/22 09:14:16;;;;;;;10.18;6.95;;;;;;;-4.08;48.18;102581.09;4959860;28;20752;-63
2021/12/22 09:16:42;;;;;;;14.48;7.32;;;;;;;-4.02;48.27;102586.50;4954780;28;20576;-63
2021/12/22 09:19:09;;;;;;;13.90;7.93;;;;;;;-3.90;48.62;102579.44;4970195;28;20039;-64
2021/12/22 09:21:35;;;;;;;9.50;5.85;;;;;;;-3.92;48.19;102581.03;4955378;28;20441;-63
2021/12/22 09:24:01;;;;;;;15.60;7.25;;;;;;;-3.81;48.06;102578.09;4964677;28;20054;-62
2021/12/22 09:26:27;;;;;;;18.60;7.80;;;;;;;-3.70;47.66;102577.81;4953728;28;20409;-63
2021/12/22 09:28:54;;;;;;;11.63;7.05;;;;;;;-3.59;47.31;102574.84;4953852;28;20358;-64
2021/12/22 09:31:21;;;;;;;12.10;7.47;;;;;;;-3.72;47.35;102583.63;4957025;28;20038;-63
2021/12/22 09:33:46;;;;;;;15.45;8.27;;;;;;;-3.49;48.07;102577.91;4957217;28;20550;-63
2021/12/22 09:36:13;;;;;;;16.48;7.00;;;;;;;-3.38;47.40;102569.88;4959298;28;20117;-64
2021/12/22 09:38:38;;;;;;;13.52;7.40;;;;;;;-3.11;47.25;102577.88;4955859;28;20416;-64
2021/12/22 09:41:06;;;;;;;16.40;8.27;;;;;;;-3.28;46.70;102580.53;4958600;28;20031;-64
2021/12/22 09:43:32;;;;;;;14.45;8.18;;;;;;;-3.37;46.87;102582.69;4945498;28;20042;-64
2021/12/22 09:46:03;;;;;;;16.75;6.95;;;;;;;-3.40;46.97;102577.44;4956569;28;20039;-64
2021/12/22 09:53:29;;;;;;;15.07;7.85;;;;;;;-2.52;45.48;102588.91;4951896;28;20043;-64
2021/12/22 09:55:55;;;;;;;13.95;8.25;;;;;;;-2.46;44.96;102579.81;4956146;28;20097;-63
2021/12/22 09:58:21;;;;;;;16.23;9.10;;;;;;;-2.34;44.90;102581.97;4954925;28;20553;-62
2021/12/22 10:00:48;;;;;;;14.13;8.00;;;;;;;-1.95;44.92;102580.97;4958055;28;20429;-63
2021/12/22 10:03:15;;;;;;;15.68;7.90;;;;;;;-1.86;45.08;102574.53;4954766;28;20085;-64
2021/12/22 10:05:42;;;;;;;16.40;8.15;;;;;;;-1.62;44.11;102569.47;4955122;28;20046;-62
2021/12/22 10:08:27;;;;;;;18.20;7.85;;;;;;;-2.67;44.97;102581.47;4952766;28;20111;-63
2021/12/22 10:11:01;;;;;;;13.45;8.02;;;;;;;-2.43;44.97;102569.69;4956419;28;20041;-63
2021/12/22 10:13:28;;;;;;;15.50;7.90;;;;;;;-2.56;46.08;102566.56;4997792;28;20146;-64
2021/12/22 10:15:55;;;;;;;15.60;7.78;;;;;;;-2.22;45.34;102566.25;4964619;28;20035;-63
2021/12/22 10:18:27;;;;;;;14.52;7.47;;;;;;;-1.86;45.21;102558.28;4958744;28;20053;-64
2021/12/22 10:21:08;;;;;;;15.73;8.80;;;;;;;-1.52;44.09;102559.53;4960356;28;20148;-63
2021/12/22 10:23:34;;;;;;;13.15;7.38;;;;;;;-1.59;44.12;102554.19;4955330;28;20042;-62
2021/12/22 10:26:07;;;;;;;13.55;7.55;;;;;;;-1.35;44.13;102558.47;4966197;23;20054;-85
2021/12/22 10:28:56;;;;;;;14.52;7.22;;;;;;;-1.34;44.55;102559.34;4924177;28;20058;-84
2021/12/22 10:31:40;;;;;;;15.70;7.70;;;;;;;-1.32;45.27;102560.28;4923324;29;20424;-84
2021/12/22 10:34:17;;;;;;;14.10;6.80;;;;;;;-1.70;44.50;102549.47;4946671;28;20043;-84
2021/12/22 10:36:53;;;;;;;11.45;7.22;;;;;;;-1.32;44.41;102552.59;4923841;28;20043;-85
2021/12/22 10:39:25;;;;;;;21.83;8.50;;;;;;;-1.20;44.04;102553.91;4932801;29;20043;-85
2021/12/22 10:41:52;;;;;;;14.27;7.53;;;;;;;-1.38;44.93;102551.53;4939342;28;20154;-84
2021/12/22 10:44:20;;;;;;;15.65;8.13;;;;;;;-1.11;44.78;102555.91;4933637;29;20112;-84
2021/12/22 10:46:48;;;;;;;15.15;8.60;;;;;;;-1.28;44.14;102551.88;4946825;28;20130;-84
2021/12/22 10:49:19;;;;;;;19.13;9.02;;;;;;;-1.17;43.63;102550.56;4920728;29;20058;-85
2021/12/22 10:52:02;;;;;;;17.30;8.98;;;;;;;-1.13;44.21;102543.84;4930060;28;20082;-82
2021/12/22 10:54:34;;;;;;;13.23;7.07;;;;;;;-0.90;44.56;102537.00;4943995;28;20408;-83
2021/12/22 10:57:11;;;;;;;17.23;8.85;;;;;;;-1.05;44.61;102529.63;4913227;29;20046;-84
2021/12/22 10:59:45;;;;;;;14.80;8.13;;;;;;;-1.11;44.37;102531.94;4946978;28;20035;-83
2021/12/22 11:02:19;;;;;;;16.88;8.48;;;;;;;-1.45;44.77;102529.03;4879636;29;20160;-84
2021/12/22 11:04:45;;;;;;;16.65;8.63;;;;;;;-1.49;44.72;102528.88;4906342;28;20035;-84
2021/12/22 11:07:27;;;;;;;11.43;7.90;;;;;;;-1.30;45.38;102527.88;4929929;29;20044;-82
2021/12/22 11:09:54;;;;;;;15.73;7.65;;;;;;;-1.25;45.26;102516.06;4921726;28;20039;-84
2021/12/22 11:12:44;;;;;;;10.52;6.75;;;;;;;-0.79;44.81;102515.13;4914550;29;20043;-86
2021/12/22 11:19:23;;;;;;;16.77;7.65;;;;;;;-0.44;43.73;102505.97;4962103;23;20135;-67
2021/12/22 11:21:58;;;;;;;15.88;7.32;;;;;;;-0.59;43.58;102508.94;4969578;28;20062;-67
2021/12/22 11:24:26;;;;;;;16.98;8.38;;;;;;;-0.76;44.88;102512.66;4972130;28;20631;-66
2021/12/22 11:26:52;;;;;;;14.23;6.65;;;;;;;-0.23;43.77;102508.38;4972654;28;20076;-66
2021/12/22 11:29:18;;;;;;;18.60;8.60;;;;;;;0.20;43.56;102499.38;4970675;28;20034;-65
2021/12/22 11:31:47;;;;;;;14.52;7.15;;;;;;;0.12;43.37;102500.84;4971065;28;20034;-66
2021/12/22 11:34:16;;;;;;;15.25;8.00;;;;;;;-0.27;44.43;102510.78;4959757;28;20039;-65
2021/12/22 11:36:44;;;;;;;14.43;6.95;;;;;;;-0.18;44.22;102509.38;4968134;28;20053;-66
2021/12/22 11:39:09;;;;;;;15.35;7.25;;;;;;;0.22;43.45;102502.88;4956329;28;20050;-66
2021/12/22 11:41:43;;;;;;;16.10;7.40;;;;;;;0.47;42.41;102495.84;4969339;28;20538;-65
2021/12/22 11:44:10;;;;;;;18.00;6.90;;;;;;;-0.50;43.98;102486.94;4970918;28;20066;-67
2021/12/22 11:46:37;;;;;;;16.98;8.02;;;;;;;0.17;44.20;102477.84;4971186;28;20456;-65
2021/12/22 11:49:03;;;;;;;14.82;7.07;;;;;;;0.14;43.16;102491.47;4974322;28;20057;-62